sensor_id;sensor_type;location;lat;lon;timestamp;pressure;altitude;pressure_sealevel;temperature
74321;BMP280;62738;45.772;4.804;2022-10-16T00:02:08;-23509.81;;;17.10
74321;BMP280;62738;45.772;4.804;2022-10-16T00:04:35;-23502.06;;;16.94
74321;BMP280;62738;45.772;4.804;2022-10-16T00:07:04;-23494.06;;;16.77
74321;BMP280;62738;45.772;4.804;2022-10-16T00:09:30;-23498.41;;;16.86
74321;BMP280;62738;45.772;4.804;2022-10-16T00:11:57;-23494.28;;;16.78
74321;BMP280;62738;45.772;4.804;2022-10-16T00:14:23;-23486.28;;;16.61
74321;BMP280;62738;45.772;4.804;2022-10-16T00:16:52;-23496.00;;;16.81
74321;BMP280;62738;45.772;4.804;2022-10-16T00:19:19;-23478.53;;;16.46
74321;BMP280;62738;45.772;4.804;2022-10-16T00:21:49;-23467.88;;;16.24
74321;BMP280;62738;45.772;4.804;2022-10-16T00:24:16;-23473.69;;;16.36
74321;BMP280;62738;45.772;4.804;2022-10-16T00:26:43;-23467.63;;;16.23
74321;BMP280;62738;45.772;4.804;2022-10-16T00:29:09;-23488.72;;;16.66
74321;BMP280;62738;45.772;4.804;2022-10-16T00:31:36;-23486.28;;;16.61
74321;BMP280;62738;45.772;4.804;2022-10-16T00:34:03;-23493.31;;;16.76
74321;BMP280;62738;45.772;4.804;2022-10-16T00:36:29;-23487.50;;;16.64
74321;BMP280;62738;45.772;4.804;2022-10-16T00:38:57;-23496.25;;;16.82
74321;BMP280;62738;45.772;4.804;2022-10-16T00:41:31;-23501.09;;;16.92
74321;BMP280;62738;45.772;4.804;2022-10-16T00:43:59;-23493.56;;;16.76
74321;BMP280;62738;45.772;4.804;2022-10-16T00:46:39;-23489.94;;;16.69
74321;BMP280;62738;45.772;4.804;2022-10-16T00:49:14;-23490.19;;;16.69
74321;BMP280;62738;45.772;4.804;2022-10-16T00:51:51;-23472.47;;;16.33
74321;BMP280;62738;45.772;4.804;2022-10-16T00:54:30;-23482.66;;;16.54
74321;BMP280;62738;45.772;4.804;2022-10-16T00:57:01;-23485.31;;;16.59
74321;BMP280;62738;45.772;4.804;2022-10-16T00:59:34;-23501.31;;;16.92
74321;BMP280;62738;45.772;4.804;2022-10-16T01:02:03;-23478.53;;;16.46
74321;BMP280;62738;45.772;4.804;2022-10-16T01:04:56;-23488.25;;;16.65
74321;BMP280;62738;45.772;4.804;2022-10-16T01:20:35;-23508.59;;;17.07
74321;BMP280;62738;45.772;4.804;2022-10-16T01:29:16;-23476.84;;;16.42
74321;BMP280;62738;45.772;4.804;2022-10-16T01:31:49;-23477.09;;;16.43
74321;BMP280;62738;45.772;4.804;2022-10-16T01:34:22;-23476.13;;;16.41
74321;BMP280;62738;45.772;4.804;2022-10-16T01:36:56;-23489.44;;;16.68
74321;BMP280;62738;45.772;4.804;2022-10-16T01:39:29;-23480.47;;;16.49
74321;BMP280;62738;45.772;4.804;2022-10-16T01:42:03;-23485.09;;;16.59
74321;BMP280;62738;45.772;4.804;2022-10-16T01:44:32;-23478.53;;;16.46
74321;BMP280;62738;45.772;4.804;2022-10-16T01:47:00;-23481.94;;;16.52
74321;BMP280;62738;45.772;4.804;2022-10-16T01:49:30;-23479.25;;;16.47
74321;BMP280;62738;45.772;4.804;2022-10-16T01:52:00;-23490.19;;;16.69
74321;BMP280;62738;45.772;4.804;2022-10-16T01:54:31;-23502.31;;;16.94
74321;BMP280;62738;45.772;4.804;2022-10-16T01:56:58;-23493.09;;;16.75
74321;BMP280;62738;45.772;4.804;2022-10-16T01:59:26;-23499.63;;;16.89
74321;BMP280;62738;45.772;4.804;2022-10-16T02:01:58;-23501.81;;;16.93
74321;BMP280;62738;45.772;4.804;2022-10-16T02:04:33;-23503.28;;;16.96
74321;BMP280;62738;45.772;4.804;2022-10-16T02:07:00;-23491.88;;;16.73
74321;BMP280;62738;45.772;4.804;2022-10-16T02:09:27;-23485.31;;;16.59
74321;BMP280;62738;45.772;4.804;2022-10-16T02:11:56;-23481.22;;;16.51
74321;BMP280;62738;45.772;4.804;2022-10-16T02:14:23;-23476.59;;;16.42
74321;BMP280;62738;45.772;4.804;2022-10-16T02:16:51;-23477.09;;;16.43
74321;BMP280;62738;45.772;4.804;2022-10-16T02:19:18;-23461.81;;;16.11
74321;BMP280;62738;45.772;4.804;2022-10-16T02:21:50;-23460.59;;;16.09
74321;BMP280;62738;45.772;4.804;2022-10-16T02:24:28;-23471.03;;;16.30
74321;BMP280;62738;45.772;4.804;2022-10-16T02:29:29;-23462.06;;;16.12
74321;BMP280;62738;45.772;4.804;2022-10-16T02:32:01;-23469.34;;;16.27
74321;BMP280;62738;45.772;4.804;2022-10-16T02:34:32;-23471.25;;;16.31
74321;BMP280;62738;45.772;4.804;2022-10-16T02:37:02;-23473.22;;;16.35
74321;BMP280;62738;45.772;4.804;2022-10-16T02:39:30;-23469.81;;;16.28
74321;BMP280;62738;45.772;4.804;2022-10-16T02:42:01;-23464.97;;;16.18
74321;BMP280;62738;45.772;4.804;2022-10-16T02:44:27;-23470.56;;;16.29
74321;BMP280;62738;45.772;4.804;2022-10-16T02:46:54;-23457.94;;;16.03
74321;BMP280;62738;45.772;4.804;2022-10-16T02:49:21;-23454.78;;;15.97
74321;BMP280;62738;45.772;4.804;2022-10-16T02:51:47;-23464.97;;;16.18
74321;BMP280;62738;45.772;4.804;2022-10-16T02:54:14;-23456.72;;;16.01
74321;BMP280;62738;45.772;4.804;2022-10-16T02:56:40;-23453.81;;;15.95
74321;BMP280;62738;45.772;4.804;2022-10-16T02:59:07;-23466.91;;;16.22
74321;BMP280;62738;45.772;4.804;2022-10-16T03:01:34;-23451.88;;;15.91
74321;BMP280;62738;45.772;4.804;2022-10-16T03:04:02;-23453.09;;;15.93
74321;BMP280;62738;45.772;4.804;2022-10-16T03:06:29;-23453.31;;;15.94
74321;BMP280;62738;45.772;4.804;2022-10-16T03:08:56;-23454.78;;;15.97
74321;BMP280;62738;45.772;4.804;2022-10-16T03:11:23;-23455.03;;;15.97
74321;BMP280;62738;45.772;4.804;2022-10-16T03:13:49;-23453.31;;;15.94
74321;BMP280;62738;45.772;4.804;2022-10-16T03:16:16;-23462.06;;;16.12
74321;BMP280;62738;45.772;4.804;2022-10-16T03:18:55;-23456.47;;;16.00
74321;BMP280;62738;45.772;4.804;2022-10-16T03:21:21;-23462.31;;;16.12
74321;BMP280;62738;45.772;4.804;2022-10-16T03:23:48;-23458.66;;;16.05
74321;BMP280;62738;45.772;4.804;2022-10-16T03:26:15;-23465.94;;;16.20
74321;BMP280;62738;45.772;4.804;2022-10-16T03:28:41;-23456.25;;;16.00
74321;BMP280;62738;45.772;4.804;2022-10-16T03:31:08;-23437.81;;;15.62
74321;BMP280;62738;45.772;4.804;2022-10-16T03:33:34;-23440.72;;;15.68
74321;BMP280;62738;45.772;4.804;2022-10-16T03:36:01;-23442.19;;;15.71
74321;BMP280;62738;45.772;4.804;2022-10-16T03:38:28;-23448.00;;;15.83
74321;BMP280;62738;45.772;4.804;2022-10-16T03:40:59;-23456.97;;;16.01
74321;BMP280;62738;45.772;4.804;2022-10-16T03:43:25;-23457.94;;;16.03
74321;BMP280;62738;45.772;4.804;2022-10-16T03:45:52;-23449.69;;;15.86
74321;BMP280;62738;45.772;4.804;2022-10-16T03:48:19;-23447.53;;;15.82
74321;BMP280;62738;45.772;4.804;2022-10-16T03:50:46;-23461.34;;;16.10
74321;BMP280;62738;45.772;4.804;2022-10-16T03:53:15;-23455.75;;;15.99
74321;BMP280;62738;45.772;4.804;2022-10-16T03:55:42;-23458.66;;;16.05
74321;BMP280;62738;45.772;4.804;2022-10-16T03:58:09;-23464.97;;;16.18
74321;BMP280;62738;45.772;4.804;2022-10-16T04:00:39;-23464.72;;;16.17
74321;BMP280;62738;45.772;4.804;2022-10-16T04:03:06;-23470.31;;;16.29
74321;BMP280;62738;45.772;4.804;2022-10-16T04:05:32;-23478.78;;;16.46
74321;BMP280;62738;45.772;4.804;2022-10-16T04:07:59;-23479.03;;;16.47
74321;BMP280;62738;45.772;4.804;2022-10-16T04:10:26;-23474.91;;;16.38
74321;BMP280;62738;45.772;4.804;2022-10-16T04:12:54;-23462.06;;;16.12
74321;BMP280;62738;45.772;4.804;2022-10-16T04:15:23;-23461.09;;;16.10
74321;BMP280;62738;45.772;4.804;2022-10-16T04:17:50;-23447.03;;;15.81
74321;BMP280;62738;45.772;4.804;2022-10-16T04:20:19;-23444.13;;;15.75
74321;BMP280;62738;45.772;4.804;2022-10-16T04:22:49;-23449.94;;;15.87
74321;BMP280;62738;45.772;4.804;2022-10-16T04:25:15;-23451.88;;;15.91
74321;BMP280;62738;45.772;4.804;2022-10-16T04:27:42;-23453.31;;;15.94
74321;BMP280;62738;45.772;4.804;2022-10-16T04:30:11;-23455.75;;;15.99
74321;BMP280;62738;45.772;4.804;2022-10-16T04:32:38;-23457.69;;;16.03
74321;BMP280;62738;45.772;4.804;2022-10-16T04:35:06;-23473.69;;;16.36
74321;BMP280;62738;45.772;4.804;2022-10-16T04:37:32;-23468.34;;;16.25
74321;BMP280;62738;45.772;4.804;2022-10-16T04:39:59;-23451.63;;;15.90
74321;BMP280;62738;45.772;4.804;2022-10-16T04:42:26;-23455.28;;;15.98
74321;BMP280;62738;45.772;4.804;2022-10-16T04:44:52;-23453.09;;;15.93
74321;BMP280;62738;45.772;4.804;2022-10-16T04:47:19;-23459.16;;;16.06
74321;BMP280;62738;45.772;4.804;2022-10-16T04:49:45;-23459.16;;;16.06
74321;BMP280;62738;45.772;4.804;2022-10-16T04:52:12;-23460.38;;;16.08
74321;BMP280;62738;45.772;4.804;2022-10-16T04:54:39;-23466.91;;;16.22
74321;BMP280;62738;45.772;4.804;2022-10-16T04:57:08;-23472.47;;;16.33
74321;BMP280;62738;45.772;4.804;2022-10-16T04:59:36;-23472.00;;;16.32
74321;BMP280;62738;45.772;4.804;2022-10-16T05:02:03;-23465.94;;;16.20
74321;BMP280;62738;45.772;4.804;2022-10-16T05:04:29;-23479.50;;;16.48
74321;BMP280;62738;45.772;4.804;2022-10-16T05:06:56;-23459.16;;;16.06
74321;BMP280;62738;45.772;4.804;2022-10-16T05:09:23;-23464.97;;;16.18
74321;BMP280;62738;45.772;4.804;2022-10-16T05:11:51;-23471.25;;;16.31
74321;BMP280;62738;45.772;4.804;2022-10-16T05:14:17;-23468.13;;;16.24
74321;BMP280;62738;45.772;4.804;2022-10-16T05:16:44;-23465.22;;;16.18
74321;BMP280;62738;45.772;4.804;2022-10-16T05:19:13;-23458.66;;;16.05
74321;BMP280;62738;45.772;4.804;2022-10-16T05:21:53;-23458.91;;;16.05
74321;BMP280;62738;45.772;4.804;2022-10-16T05:24:19;-23460.38;;;16.08
74321;BMP280;62738;45.772;4.804;2022-10-16T05:26:46;-23461.81;;;16.11
74321;BMP280;62738;45.772;4.804;2022-10-16T05:29:14;-23468.84;;;16.26
74321;BMP280;62738;45.772;4.804;2022-10-16T05:31:40;-23465.44;;;16.19
74321;BMP280;62738;45.772;4.804;2022-10-16T05:34:07;-23477.09;;;16.43
74321;BMP280;62738;45.772;4.804;2022-10-16T05:36:33;-23488.25;;;16.65
74321;BMP280;62738;45.772;4.804;2022-10-16T05:39:00;-23498.91;;;16.87
74321;BMP280;62738;45.772;4.804;2022-10-16T05:41:26;-23508.59;;;17.07
74321;BMP280;62738;45.772;4.804;2022-10-16T05:43:53;-23512.47;;;17.15
74321;BMP280;62738;45.772;4.804;2022-10-16T05:46:20;-23515.63;;;17.22
74321;BMP280;62738;45.772;4.804;2022-10-16T05:48:46;-23513.44;;;17.17
74321;BMP280;62738;45.772;4.804;2022-10-16T05:51:14;-23514.19;;;17.19
74321;BMP280;62738;45.772;4.804;2022-10-16T05:53:41;-23506.41;;;17.03
74321;BMP280;62738;45.772;4.804;2022-10-16T05:56:13;-23510.53;;;17.11
74321;BMP280;62738;45.772;4.804;2022-10-16T05:58:40;-23495.03;;;16.79
74321;BMP280;62738;45.772;4.804;2022-10-16T06:01:10;-23482.91;;;16.54
74321;BMP280;62738;45.772;4.804;2022-10-16T06:03:37;-23484.84;;;16.58
74321;BMP280;62738;45.772;4.804;2022-10-16T06:06:08;-23496.00;;;16.81
74321;BMP280;62738;45.772;4.804;2022-10-16T06:08:38;-23486.78;;;16.62
74321;BMP280;62738;45.772;4.804;2022-10-16T06:11:07;-23482.44;;;16.53
74321;BMP280;62738;45.772;4.804;2022-10-16T06:13:34;-23498.91;;;16.87
74321;BMP280;62738;45.772;4.804;2022-10-16T06:16:02;-23498.91;;;16.87
74321;BMP280;62738;45.772;4.804;2022-10-16T06:18:29;-23504.72;;;16.99
74321;BMP280;62738;45.772;4.804;2022-10-16T06:20:57;-23496.72;;;16.83
74321;BMP280;62738;45.772;4.804;2022-10-16T06:23:24;-23499.41;;;16.88
74321;BMP280;62738;45.772;4.804;2022-10-16T06:25:51;-23509.09;;;17.08
74321;BMP280;62738;45.772;4.804;2022-10-16T06:28:17;-23514.66;;;17.20
74321;BMP280;62738;45.772;4.804;2022-10-16T06:30:44;-23508.13;;;17.06
74321;BMP280;62738;45.772;4.804;2022-10-16T06:33:12;-23513.22;;;17.17
74321;BMP280;62738;45.772;4.804;2022-10-16T06:35:39;-23530.91;;;17.53
74321;BMP280;62738;45.772;4.804;2022-10-16T06:38:05;-23518.53;;;17.28
74321;BMP280;62738;45.772;4.804;2022-10-16T06:40:32;-23513.94;;;17.18
74321;BMP280;62738;45.772;4.804;2022-10-16T06:42:58;-23501.31;;;16.92
74321;BMP280;62738;45.772;4.804;2022-10-16T06:45:25;-23505.22;;;17.00
74321;BMP280;62738;45.772;4.804;2022-10-16T06:47:51;-23523.16;;;17.37
74321;BMP280;62738;45.772;4.804;2022-10-16T06:50:18;-23533.56;;;17.58
74321;BMP280;62738;45.772;4.804;2022-10-16T06:52:45;-23524.84;;;17.41
74321;BMP280;62738;45.772;4.804;2022-10-16T06:55:11;-23524.84;;;17.41
74321;BMP280;62738;45.772;4.804;2022-10-16T06:57:38;-23526.53;;;17.44
74321;BMP280;62738;45.772;4.804;2022-10-16T07:00:05;-23530.91;;;17.53
74321;BMP280;62738;45.772;4.804;2022-10-16T07:02:32;-23538.66;;;17.69
74321;BMP280;62738;45.772;4.804;2022-10-16T07:04:58;-23536.72;;;17.65
74321;BMP280;62738;45.772;4.804;2022-10-16T07:07:25;-23546.91;;;17.86
74321;BMP280;62738;45.772;4.804;2022-10-16T07:09:52;-23550.81;;;17.94
74321;BMP280;62738;45.772;4.804;2022-10-16T07:12:19;-23566.56;;;18.26
74321;BMP280;62738;45.772;4.804;2022-10-16T07:14:46;-23571.66;;;18.37
74321;BMP280;62738;45.772;4.804;2022-10-16T07:17:12;-23576.97;;;18.48
74321;BMP280;62738;45.772;4.804;2022-10-16T07:19:39;-23575.03;;;18.44
74321;BMP280;62738;45.772;4.804;2022-10-16T07:22:05;-23568.50;;;18.30
74321;BMP280;62738;45.772;4.804;2022-10-16T07:24:32;-23568.25;;;18.30
74321;BMP280;62738;45.772;4.804;2022-10-16T07:26:59;-23575.75;;;18.45
74321;BMP280;62738;45.772;4.804;2022-10-16T07:29:26;-23576.50;;;18.47
74321;BMP280;62738;45.772;4.804;2022-10-16T07:31:52;-23583.28;;;18.60
74321;BMP280;62738;45.772;4.804;2022-10-16T07:34:20;-23593.47;;;18.81
74321;BMP280;62738;45.772;4.804;2022-10-16T07:36:49;-23599.53;;;18.94
74321;BMP280;62738;45.772;4.804;2022-10-16T07:39:16;-23604.13;;;19.03
74321;BMP280;62738;45.772;4.804;2022-10-16T07:41:43;-23612.63;;;19.21
74321;BMP280;62738;45.772;4.804;2022-10-16T07:44:09;-23616.28;;;19.28
74321;BMP280;62738;45.772;4.804;2022-10-16T07:46:36;-23615.31;;;19.26
74321;BMP280;62738;45.772;4.804;2022-10-16T07:49:03;-23618.94;;;19.34
74321;BMP280;62738;45.772;4.804;2022-10-16T07:51:30;-23616.28;;;19.28
74321;BMP280;62738;45.772;4.804;2022-10-16T07:53:57;-23623.56;;;19.43
74321;BMP280;62738;45.772;4.804;2022-10-16T07:56:23;-23620.66;;;19.37
74321;BMP280;62738;45.772;4.804;2022-10-16T07:58:50;-23624.28;;;19.45
74321;BMP280;62738;45.772;4.804;2022-10-16T08:01:17;-23625.72;;;19.48
74321;BMP280;62738;45.772;4.804;2022-10-16T08:03:46;-23628.41;;;19.53
74321;BMP280;62738;45.772;4.804;2022-10-16T08:06:13;-23624.03;;;19.44
74321;BMP280;62738;45.772;4.804;2022-10-16T08:08:40;-23622.09;;;19.40
74321;BMP280;62738;45.772;4.804;2022-10-16T08:11:07;-23626.72;;;19.50
74321;BMP280;62738;45.772;4.804;2022-10-16T08:13:34;-23621.84;;;19.40
74321;BMP280;62738;45.772;4.804;2022-10-16T08:16:01;-23618.94;;;19.34
74321;BMP280;62738;45.772;4.804;2022-10-16T08:18:30;-23616.75;;;19.29
74321;BMP280;62738;45.772;4.804;2022-10-16T08:20:58;-23622.59;;;19.41
74321;BMP280;62738;45.772;4.804;2022-10-16T08:23:27;-23626.72;;;19.50
74321;BMP280;62738;45.772;4.804;2022-10-16T08:25:55;-23630.59;;;19.57
74321;BMP280;62738;45.772;4.804;2022-10-16T08:28:22;-23634.72;;;19.66
74321;BMP280;62738;45.772;4.804;2022-10-16T08:30:49;-23650.72;;;19.99
74321;BMP280;62738;45.772;4.804;2022-10-16T08:33:16;-23661.41;;;20.21
74321;BMP280;62738;45.772;4.804;2022-10-16T08:35:43;-23673.53;;;20.45
74321;BMP280;62738;45.772;4.804;2022-10-16T08:38:16;-23661.41;;;20.21
74321;BMP280;62738;45.772;4.804;2022-10-16T08:40:42;-23664.56;;;20.27
74321;BMP280;62738;45.772;4.804;2022-10-16T08:43:21;-23671.09;;;20.41
74321;BMP280;62738;45.772;4.804;2022-10-16T08:46:04;-23671.09;;;20.41
74321;BMP280;62738;45.772;4.804;2022-10-16T08:48:48;-23671.59;;;20.42
74321;BMP280;62738;45.772;4.804;2022-10-16T08:51:24;-23684.44;;;20.68
74321;BMP280;62738;45.772;4.804;2022-10-16T08:56:21;-23686.38;;;20.72
74321;BMP280;62738;45.772;4.804;2022-10-16T08:58:49;-23690.03;;;20.79
74321;BMP280;62738;45.772;4.804;2022-10-16T09:01:22;-23689.78;;;20.79
74321;BMP280;62738;45.772;4.804;2022-10-16T09:12:30;-23702.66;;;21.05
74321;BMP280;62738;45.772;4.804;2022-10-16T09:15:17;-23700.22;;;21.00
74321;BMP280;62738;45.772;4.804;2022-10-16T09:17:59;-23700.22;;;21.00
74321;BMP280;62738;45.772;4.804;2022-10-16T09:23:19;-23707.97;;;21.16
74321;BMP280;62738;45.772;4.804;2022-10-16T09:25:49;-23713.81;;;21.28
74321;BMP280;62738;45.772;4.804;2022-10-16T09:28:17;-23719.38;;;21.39
74321;BMP280;62738;45.772;4.804;2022-10-16T09:30:45;-23725.69;;;21.52
74321;BMP280;62738;45.772;4.804;2022-10-16T09:33:12;-23725.69;;;21.52
74321;BMP280;62738;45.772;4.804;2022-10-16T09:35:42;-23724.47;;;21.50
74321;BMP280;62738;45.772;4.804;2022-10-16T09:38:24;-23724.72;;;21.50
74321;BMP280;62738;45.772;4.804;2022-10-16T09:40:51;-23727.88;;;21.57
74321;BMP280;62738;45.772;4.804;2022-10-16T09:43:40;-23730.78;;;21.63
74321;BMP280;62738;45.772;4.804;2022-10-16T09:46:21;-23733.44;;;21.68
74321;BMP280;62738;45.772;4.804;2022-10-16T09:48:50;-23736.88;;;21.75
74321;BMP280;62738;45.772;4.804;2022-10-16T09:54:20;-23737.56;;;21.77
74321;BMP280;62738;45.772;4.804;2022-10-16T09:56:46;-23750.19;;;22.03
74321;BMP280;62738;45.772;4.804;2022-10-16T09:59:20;-23743.16;;;21.88
74321;BMP280;62738;45.772;4.804;2022-10-16T10:01:51;-23752.38;;;22.07
74321;BMP280;62738;45.772;4.804;2022-10-16T10:04:23;-23760.63;;;22.24
74321;BMP280;62738;45.772;4.804;2022-10-16T10:06:54;-23754.09;;;22.11
74321;BMP280;62738;45.772;4.804;2022-10-16T10:11:55;-23761.59;;;22.26
74321;BMP280;62738;45.772;4.804;2022-10-16T10:14:27;-23762.34;;;22.27
74321;BMP280;62738;45.772;4.804;2022-10-16T10:22:44;-23765.97;;;22.35
74321;BMP280;62738;45.772;4.804;2022-10-16T10:30:34;-23775.94;;;22.55
74321;BMP280;62738;45.772;4.804;2022-10-16T10:33:44;-23775.44;;;22.54
74321;BMP280;62738;45.772;4.804;2022-10-16T10:38:47;-23773.50;;;22.50
74321;BMP280;62738;45.772;4.804;2022-10-16T10:44:07;-23787.34;;;22.79
74321;BMP280;62738;45.772;4.804;2022-10-16T10:47:05;-23783.69;;;22.71
74321;BMP280;62738;45.772;4.804;2022-10-16T10:49:40;-23788.06;;;22.80
74321;BMP280;62738;45.772;4.804;2022-10-16T10:58:20;-23794.38;;;22.93
74321;BMP280;62738;45.772;4.804;2022-10-16T11:06:17;-23797.28;;;22.99
74321;BMP280;62738;45.772;4.804;2022-10-16T11:08:51;-23804.81;;;23.14
74321;BMP280;62738;45.772;4.804;2022-10-16T11:11:32;-23807.47;;;23.20
74321;BMP280;62738;45.772;4.804;2022-10-16T11:14:08;-23809.19;;;23.23
74321;BMP280;62738;45.772;4.804;2022-10-16T11:16:59;-23806.03;;;23.17
74321;BMP280;62738;45.772;4.804;2022-10-16T11:19:49;-23811.84;;;23.29
74321;BMP280;62738;45.772;4.804;2022-10-16T11:22:38;-23802.63;;;23.10
74321;BMP280;62738;45.772;4.804;2022-10-16T11:25:16;-23803.13;;;23.11
74321;BMP280;62738;45.772;4.804;2022-10-16T11:27:58;-23806.50;;;23.18
74321;BMP280;62738;45.772;4.804;2022-10-16T11:30:29;-23813.78;;;23.33
74321;BMP280;62738;45.772;4.804;2022-10-16T11:36:02;-23815.00;;;23.35
74321;BMP280;62738;45.772;4.804;2022-10-16T11:44:31;-23815.97;;;23.37
74321;BMP280;62738;45.772;4.804;2022-10-16T11:55:49;-23811.38;;;23.28
74321;BMP280;62738;45.772;4.804;2022-10-16T12:03:35;-23797.78;;;23.00
74321;BMP280;62738;45.772;4.804;2022-10-16T12:06:14;-23801.41;;;23.07
74321;BMP280;62738;45.772;4.804;2022-10-16T12:08:45;-23806.50;;;23.18
74321;BMP280;62738;45.772;4.804;2022-10-16T12:13:49;-23817.19;;;23.40
74321;BMP280;62738;45.772;4.804;2022-10-16T12:18:44;-23821.06;;;23.48
74321;BMP280;62738;45.772;4.804;2022-10-16T12:21:12;-23808.69;;;23.22
74321;BMP280;62738;45.772;4.804;2022-10-16T12:23:53;-23812.34;;;23.30
74321;BMP280;62738;45.772;4.804;2022-10-16T12:26:28;-23821.06;;;23.48
74321;BMP280;62738;45.772;4.804;2022-10-16T12:29:09;-23816.22;;;23.38
74321;BMP280;62738;45.772;4.804;2022-10-16T12:31:43;-23818.16;;;23.42
74321;BMP280;62738;45.772;4.804;2022-10-16T12:34:36;-23819.13;;;23.44
74321;BMP280;62738;45.772;4.804;2022-10-16T12:37:20;-23820.34;;;23.46
74321;BMP280;62738;45.772;4.804;2022-10-16T12:39:48;-23817.69;;;23.41
74321;BMP280;62738;45.772;4.804;2022-10-16T12:44:54;-23826.91;;;23.60
